createdAt,value
2022-12-16T00:01:19.465Z,1.60
2022-12-16T00:04:05.307Z,1.70
2022-12-16T00:06:51.780Z,1.80
2022-12-16T00:09:37.893Z,1.80
2022-12-16T00:12:23.999Z,1.70
2022-12-16T00:15:10.120Z,1.80
2022-12-16T00:17:55.793Z,1.80
2022-12-16T00:20:48.637Z,1.70
2022-12-16T00:23:35.706Z,1.80
2022-12-16T00:26:22.316Z,1.80
2022-12-16T00:29:11.045Z,1.80
2022-12-16T00:31:56.914Z,1.70
2022-12-16T00:34:43.518Z,1.70
2022-12-16T00:37:29.502Z,1.80
2022-12-16T00:40:15.617Z,1.80
2022-12-16T00:43:01.605Z,1.80
2022-12-16T00:45:47.965Z,1.90
2022-12-16T00:48:34.395Z,1.90
2022-12-16T00:51:20.427Z,1.90
2022-12-16T00:54:06.064Z,2.00
2022-12-16T00:56:52.204Z,2.00
2022-12-16T00:59:38.152Z,2.00
2022-12-16T01:02:24.410Z,2.00
2022-12-16T01:05:11.325Z,2.00
2022-12-16T01:07:57.470Z,1.90
2022-12-16T01:10:49.432Z,2.00
2022-12-16T01:13:36.540Z,2.00
2022-12-16T01:16:23.000Z,2.00
2022-12-16T01:19:09.261Z,2.00
2022-12-16T01:21:55.153Z,2.00
2022-12-16T01:24:41.304Z,2.00
2022-12-16T01:27:27.463Z,2.00
2022-12-16T01:30:13.657Z,1.90
2022-12-16T01:32:59.314Z,2.00
2022-12-16T01:35:55.288Z,2.00
2022-12-16T01:38:42.796Z,2.00
2022-12-16T01:41:28.844Z,2.00
2022-12-16T01:44:14.817Z,2.00
2022-12-16T01:47:03.220Z,2.00
2022-12-16T01:49:55.188Z,1.90
2022-12-16T01:52:44.504Z,1.90
2022-12-16T01:55:35.806Z,1.90
2022-12-16T01:58:24.555Z,1.90
2022-12-16T02:01:10.314Z,1.90
2022-12-16T02:03:57.528Z,2.00
2022-12-16T02:06:43.558Z,2.00
2022-12-16T02:09:29.605Z,1.90
2022-12-16T02:12:29.627Z,1.90
2022-12-16T02:15:24.676Z,1.80
2022-12-16T02:18:10.742Z,1.90
2022-12-16T02:21:06.100Z,1.90
2022-12-16T02:24:07.362Z,1.90
2022-12-16T02:27:06.824Z,1.90
2022-12-16T02:29:59.076Z,1.90
2022-12-16T02:32:51.130Z,1.90
2022-12-16T02:35:50.108Z,1.90
2022-12-16T02:38:56.546Z,1.90
2022-12-16T02:41:43.887Z,1.80
2022-12-16T02:44:34.879Z,1.80
2022-12-16T02:47:21.044Z,1.70
2022-12-16T02:50:21.833Z,1.60
2022-12-16T02:53:09.098Z,1.50
2022-12-16T02:56:06.475Z,1.50
2022-12-16T02:58:52.443Z,1.40
2022-12-16T03:01:52.905Z,1.30
2022-12-16T03:05:09.224Z,1.30
2022-12-16T03:07:58.626Z,1.30
2022-12-16T03:10:46.480Z,1.20
2022-12-16T03:13:34.638Z,1.20
2022-12-16T03:16:22.153Z,1.20
2022-12-16T03:19:09.542Z,1.20
2022-12-16T03:22:00.229Z,1.20
2022-12-16T03:24:46.326Z,1.20
2022-12-16T03:27:36.916Z,1.10
2022-12-16T03:30:25.781Z,1.10
2022-12-16T03:33:19.446Z,1.00
2022-12-16T03:36:12.383Z,1.10
2022-12-16T03:38:58.880Z,0.90
2022-12-16T03:41:46.792Z,0.90
2022-12-16T03:44:34.707Z,0.90
2022-12-16T03:47:23.896Z,0.90
2022-12-16T03:50:11.105Z,0.80
2022-12-16T03:52:56.958Z,0.90
2022-12-16T03:55:42.961Z,0.90
2022-12-16T03:58:29.049Z,0.80
2022-12-16T04:01:15.590Z,0.80
2022-12-16T04:04:01.343Z,0.80
2022-12-16T04:07:07.247Z,0.80
2022-12-16T04:09:53.192Z,0.70
2022-12-16T04:12:57.820Z,0.60
2022-12-16T04:16:02.237Z,0.60
2022-12-16T04:19:07.211Z,0.60
2022-12-16T04:22:13.653Z,0.60
2022-12-16T04:25:02.248Z,0.50
2022-12-16T04:27:48.315Z,0.50
2022-12-16T04:30:34.911Z,0.60
2022-12-16T04:33:39.338Z,0.60
2022-12-16T04:36:43.812Z,0.70
2022-12-16T04:39:48.247Z,0.70
2022-12-16T04:42:52.776Z,0.60
2022-12-16T04:45:57.913Z,0.60
2022-12-16T04:49:02.981Z,0.60
2022-12-16T04:52:07.334Z,0.60
2022-12-16T04:55:11.749Z,0.70
2022-12-16T04:58:16.997Z,0.70
2022-12-16T05:01:35.325Z,0.80
2022-12-16T05:04:39.996Z,0.70
2022-12-16T05:07:44.558Z,0.70
2022-12-16T05:10:49.107Z,0.70
2022-12-16T05:13:53.745Z,0.80
2022-12-16T05:16:58.208Z,0.70
2022-12-16T05:20:02.800Z,0.70
2022-12-16T05:23:07.792Z,0.70
2022-12-16T05:26:12.457Z,0.70
2022-12-16T05:29:16.881Z,0.60
2022-12-16T05:32:21.375Z,0.60
2022-12-16T05:35:25.878Z,0.60
2022-12-16T05:38:30.451Z,0.60
2022-12-16T05:41:39.936Z,0.50
2022-12-16T05:44:44.525Z,0.60
2022-12-16T05:47:49.020Z,0.50
2022-12-16T05:50:53.491Z,0.60
2022-12-16T05:54:00.475Z,0.60
2022-12-16T05:57:04.783Z,0.60
2022-12-16T06:00:09.342Z,0.60
2022-12-16T06:03:17.185Z,0.70
2022-12-16T06:06:22.100Z,0.70
2022-12-16T06:09:26.397Z,0.70
2022-12-16T06:12:30.907Z,0.70
2022-12-16T06:15:35.388Z,0.70
2022-12-16T06:18:39.765Z,0.70
2022-12-16T06:21:44.223Z,0.70
2022-12-16T06:24:48.560Z,0.70
2022-12-16T06:27:53.114Z,0.80
2022-12-16T06:30:57.645Z,0.80
2022-12-16T06:34:02.143Z,0.90
2022-12-16T06:37:06.699Z,0.90
2022-12-16T06:40:11.214Z,0.90
2022-12-16T06:43:15.677Z,0.80
2022-12-16T06:46:20.221Z,0.80
2022-12-16T06:49:25.251Z,0.70
2022-12-16T06:52:29.996Z,0.70
2022-12-16T06:55:34.468Z,0.70
2022-12-16T06:58:39.612Z,0.80
2022-12-16T07:01:44.281Z,0.80
2022-12-16T07:04:49.062Z,0.80
2022-12-16T07:07:53.614Z,0.80
2022-12-16T07:11:09.167Z,0.80
2022-12-16T07:14:20.833Z,0.80
2022-12-16T07:17:25.340Z,0.90
2022-12-16T07:20:29.790Z,0.80
2022-12-16T07:23:34.383Z,0.80
2022-12-16T07:26:39.158Z,0.80
2022-12-16T07:29:43.789Z,0.80
2022-12-16T07:32:48.586Z,0.80
2022-12-16T07:35:53.116Z,0.80
2022-12-16T07:38:57.577Z,0.80
2022-12-16T07:42:02.071Z,0.90
2022-12-16T07:45:06.571Z,0.90
2022-12-16T07:48:11.074Z,0.90
2022-12-16T07:51:15.669Z,0.90
2022-12-16T07:54:20.247Z,1.00
2022-12-16T07:57:24.960Z,1.10
2022-12-16T08:00:29.350Z,1.20
2022-12-16T08:03:34.514Z,1.20
2022-12-16T08:06:40.528Z,1.20
2022-12-16T08:09:45.273Z,1.10
2022-12-16T08:12:49.760Z,1.10
2022-12-16T08:15:54.201Z,1.20
2022-12-16T08:18:58.672Z,1.20
2022-12-16T08:22:03.274Z,1.30
2022-12-16T08:25:07.615Z,1.40
2022-12-16T08:28:12.683Z,1.40
2022-12-16T08:31:17.154Z,1.40
2022-12-16T08:34:22.069Z,1.50
2022-12-16T08:37:27.056Z,1.40
2022-12-16T08:40:35.988Z,1.50
2022-12-16T08:43:41.171Z,1.50
2022-12-16T08:46:45.582Z,1.50
2022-12-16T08:49:51.109Z,1.40
2022-12-16T08:52:58.204Z,1.40
2022-12-16T08:56:02.673Z,1.50
2022-12-16T08:59:09.071Z,1.60
2022-12-16T09:02:13.864Z,1.60
2022-12-16T09:05:18.832Z,1.70
2022-12-16T09:08:23.270Z,1.60
2022-12-16T09:11:27.716Z,1.70
2022-12-16T09:14:32.268Z,1.70
2022-12-16T09:17:37.152Z,1.70
2022-12-16T09:20:41.604Z,1.60
2022-12-16T09:23:46.136Z,1.60
2022-12-16T09:26:50.665Z,1.50
2022-12-16T09:29:55.548Z,1.60
2022-12-16T09:33:01.482Z,1.60
2022-12-16T09:36:06.021Z,1.50
2022-12-16T09:39:10.417Z,1.50
2022-12-16T09:42:22.246Z,1.60
2022-12-16T09:45:41.025Z,1.50
2022-12-16T09:48:57.086Z,1.50
2022-12-16T09:52:02.593Z,1.50
2022-12-16T09:55:06.950Z,1.50
2022-12-16T09:58:11.298Z,1.50
2022-12-16T10:01:15.819Z,1.50
2022-12-16T10:04:20.960Z,1.40
2022-12-16T10:07:28.400Z,1.50
2022-12-16T10:10:35.865Z,1.30
2022-12-16T10:13:59.361Z,1.30
2022-12-16T10:17:30.200Z,1.40
2022-12-16T10:20:49.476Z,1.50
2022-12-16T10:23:53.806Z,1.40
2022-12-16T10:27:04.403Z,1.50
2022-12-16T10:30:08.952Z,1.30
2022-12-16T10:33:14.016Z,1.40
2022-12-16T10:36:18.463Z,1.50
2022-12-16T10:39:42.937Z,1.50
2022-12-16T10:42:48.816Z,1.60
2022-12-16T10:45:55.121Z,1.70
2022-12-16T10:49:00.319Z,1.90
2022-12-16T10:52:08.900Z,1.90
2022-12-16T10:55:20.669Z,2.00
2022-12-16T10:58:34.190Z,2.00
2022-12-16T11:01:41.886Z,1.80
2022-12-16T11:04:49.952Z,1.70
2022-12-16T11:07:57.596Z,1.70
2022-12-16T11:11:02.674Z,1.60
2022-12-16T11:14:07.090Z,1.60
2022-12-16T11:17:29.049Z,1.60
2022-12-16T11:20:38.152Z,1.60
2022-12-16T11:23:43.412Z,1.50
2022-12-16T11:26:47.931Z,1.60
2022-12-16T11:29:52.326Z,1.60
2022-12-16T11:32:58.583Z,1.50
2022-12-16T11:36:12.230Z,1.40
2022-12-16T11:39:17.151Z,1.60
2022-12-16T11:42:22.656Z,1.50
2022-12-16T11:45:32.399Z,1.50
2022-12-16T11:48:51.834Z,1.50
2022-12-16T11:52:28.029Z,1.50
2022-12-16T11:55:55.924Z,1.50
2022-12-16T11:59:06.577Z,1.60
2022-12-16T12:02:18.231Z,1.60
2022-12-16T12:05:23.095Z,1.50
2022-12-16T12:08:31.942Z,1.40
2022-12-16T12:11:43.119Z,1.30
2022-12-16T12:15:06.509Z,1.30
2022-12-16T12:18:11.456Z,1.40
2022-12-16T12:21:19.154Z,1.40
2022-12-16T12:24:33.582Z,1.40
2022-12-16T12:27:38.678Z,1.40
2022-12-16T12:30:44.052Z,1.40
2022-12-16T12:33:56.636Z,1.60
2022-12-16T12:37:06.180Z,1.60
2022-12-16T12:40:18.581Z,1.60
2022-12-16T12:43:27.636Z,1.50
2022-12-16T12:46:35.156Z,1.60
2022-12-16T12:49:42.683Z,1.60
2022-12-16T12:52:56.241Z,1.60
2022-12-16T12:56:00.729Z,1.40
2022-12-16T12:59:06.737Z,1.40
2022-12-16T13:02:12.315Z,1.50
2022-12-16T13:05:22.490Z,1.50
2022-12-16T13:08:47.744Z,1.50
2022-12-16T13:11:52.361Z,1.40
2022-12-16T13:14:56.826Z,1.40
2022-12-16T13:18:24.078Z,1.30
2022-12-16T13:21:47.577Z,1.10
2022-12-16T13:25:00.548Z,0.90
2022-12-16T13:28:07.075Z,0.90
2022-12-16T13:31:25.251Z,0.90
2022-12-16T13:34:33.993Z,0.70
2022-12-16T13:37:47.734Z,0.60
2022-12-16T13:41:06.867Z,0.60
2022-12-16T13:44:16.291Z,0.60
2022-12-16T13:47:20.774Z,0.70
2022-12-16T13:50:45.063Z,0.90
2022-12-16T13:54:01.739Z,0.90
2022-12-16T13:57:07.205Z,0.70
2022-12-16T14:00:36.279Z,0.60
2022-12-16T14:03:45.904Z,0.60
2022-12-16T14:06:50.925Z,0.50
2022-12-16T14:09:56.416Z,0.60
2022-12-16T14:13:07.465Z,0.50
2022-12-16T14:16:30.586Z,0.50
2022-12-16T14:19:54.915Z,0.30
2022-12-16T14:23:03.199Z,0.20
2022-12-16T14:26:14.824Z,0.10
2022-12-16T14:29:20.105Z,0.10
2022-12-16T14:32:43.603Z,0.00
2022-12-16T14:35:48.306Z,0.10
2022-12-16T14:38:55.775Z,-0.10
2022-12-16T14:42:00.418Z,-0.10
2022-12-16T14:45:06.267Z,-0.10
2022-12-16T14:48:10.923Z,0.00
2022-12-16T14:51:15.679Z,0.00
2022-12-16T14:54:39.396Z,-0.10
2022-12-16T14:57:46.092Z,-0.20
2022-12-16T15:01:19.916Z,-0.30
2022-12-16T15:04:27.735Z,-0.30
2022-12-16T15:07:33.670Z,-0.20
2022-12-16T15:10:40.413Z,-0.30
2022-12-16T15:13:44.792Z,-0.30
2022-12-16T15:16:50.897Z,-0.30
2022-12-16T15:20:03.556Z,-0.20
2022-12-16T15:23:08.495Z,-0.10
2022-12-16T15:26:14.385Z,-0.10
2022-12-16T15:29:19.148Z,-0.10
2022-12-16T15:32:41.571Z,-0.20
2022-12-16T15:35:54.579Z,-0.30
2022-12-16T15:38:59.438Z,-0.40
2022-12-16T15:42:05.556Z,-0.50
2022-12-16T15:45:12.594Z,-0.50
2022-12-16T15:48:17.390Z,-0.60
2022-12-16T15:51:21.899Z,-0.50
2022-12-16T15:54:52.846Z,-0.50
2022-12-16T15:57:58.043Z,-0.50
2022-12-16T16:01:14.662Z,-0.50
2022-12-16T16:04:19.187Z,-0.40
2022-12-16T16:07:32.158Z,-0.40
2022-12-16T16:10:38.053Z,-0.40
2022-12-16T16:13:42.653Z,-0.40
2022-12-16T16:16:47.436Z,-0.40
2022-12-16T16:19:51.852Z,-0.50
2022-12-16T16:22:56.395Z,-0.40
2022-12-16T16:26:04.025Z,-0.40
2022-12-16T16:29:08.660Z,-0.40
2022-12-16T16:32:13.924Z,-0.50
2022-12-16T16:35:18.799Z,-0.50
2022-12-16T16:38:24.018Z,-0.30
2022-12-16T16:41:32.278Z,-0.30
2022-12-16T16:44:36.719Z,-0.20
2022-12-16T16:47:41.211Z,-0.30
2022-12-16T16:50:45.999Z,-0.30
2022-12-16T16:53:50.244Z,-0.40
2022-12-16T16:56:56.306Z,-0.40
2022-12-16T17:00:00.924Z,-0.40
2022-12-16T17:03:06.067Z,-0.40
2022-12-16T17:06:10.864Z,-0.40
2022-12-16T17:09:15.528Z,-0.40
2022-12-16T17:12:20.073Z,-0.40
2022-12-16T17:15:35.781Z,-0.40
2022-12-16T17:18:45.580Z,-0.30
2022-12-16T17:21:51.612Z,-0.20
2022-12-16T17:24:56.737Z,-0.20
2022-12-16T17:28:02.389Z,-0.20
2022-12-16T17:31:07.055Z,-0.10
2022-12-16T17:34:12.002Z,0.00
2022-12-16T17:37:16.589Z,0.00
2022-12-16T17:40:20.912Z,-0.10
2022-12-16T17:43:25.350Z,0.00
2022-12-16T17:46:30.346Z,0.00
2022-12-16T17:49:35.044Z,0.10
2022-12-16T17:52:39.544Z,0.10
2022-12-16T17:55:44.127Z,0.20
2022-12-16T17:58:49.475Z,0.10
2022-12-16T18:01:54.119Z,0.00
2022-12-16T18:04:59.197Z,0.00
2022-12-16T18:08:03.960Z,0.00
2022-12-16T18:11:12.067Z,0.10
2022-12-16T18:14:16.459Z,0.10
2022-12-16T18:17:21.138Z,0.00
2022-12-16T18:20:25.689Z,0.10
2022-12-16T18:23:30.065Z,0.20
2022-12-16T18:26:48.492Z,0.20
2022-12-16T18:29:52.954Z,0.20
2022-12-16T18:32:57.883Z,0.20
2022-12-16T18:36:02.639Z,0.30
2022-12-16T18:39:07.246Z,0.30
2022-12-16T18:42:11.781Z,0.20
2022-12-16T18:45:16.231Z,0.20
2022-12-16T18:48:20.835Z,0.30
2022-12-16T18:51:25.178Z,0.40
2022-12-16T18:54:29.699Z,0.40
2022-12-16T18:57:39.498Z,0.40
2022-12-16T19:00:44.824Z,0.30
2022-12-16T19:03:49.680Z,0.20
2022-12-16T19:06:54.321Z,0.30
2022-12-16T19:09:58.856Z,0.30
2022-12-16T19:13:03.317Z,0.20
2022-12-16T19:16:14.594Z,0.20
2022-12-16T19:19:20.349Z,0.20
2022-12-16T19:22:24.982Z,0.20
2022-12-16T19:25:29.314Z,0.20
2022-12-16T19:28:34.511Z,0.20
2022-12-16T19:31:39.023Z,0.20
2022-12-16T19:34:43.995Z,0.20
2022-12-16T19:37:48.473Z,0.10
2022-12-16T19:40:53.832Z,0.10
2022-12-16T19:44:03.636Z,0.10
2022-12-16T19:47:10.496Z,0.10
2022-12-16T19:50:14.996Z,0.20
2022-12-16T19:53:19.471Z,0.20
2022-12-16T19:56:24.009Z,0.30
2022-12-16T19:59:28.348Z,0.30
2022-12-16T20:02:33.110Z,0.40
2022-12-16T20:05:37.978Z,0.40
2022-12-16T20:08:44.061Z,0.40
2022-12-16T20:11:48.428Z,0.40
2022-12-16T20:14:53.444Z,0.30
2022-12-16T20:17:58.270Z,0.10
2022-12-16T20:21:02.892Z,0.00
2022-12-16T20:24:07.289Z,0.00
2022-12-16T20:27:11.805Z,0.00
2022-12-16T20:30:16.321Z,0.00
2022-12-16T20:33:20.789Z,-0.10
2022-12-16T20:36:25.293Z,-0.10
2022-12-16T20:39:29.837Z,0.00
2022-12-16T20:42:34.371Z,-0.10
2022-12-16T20:45:38.851Z,-0.20
2022-12-16T20:48:43.554Z,-0.30
2022-12-16T20:51:47.969Z,-0.40
2022-12-16T20:54:52.537Z,-0.50
2022-12-16T20:58:00.888Z,-0.50
2022-12-16T21:01:08.967Z,-0.50
2022-12-16T21:04:14.467Z,-0.40
2022-12-16T21:07:18.903Z,-0.40
2022-12-16T21:10:23.323Z,-0.40
2022-12-16T21:13:28.328Z,-0.40
2022-12-16T21:16:32.794Z,-0.30
2022-12-16T21:19:37.333Z,-0.30
2022-12-16T21:22:41.877Z,-0.30
2022-12-16T21:25:46.563Z,-0.30
2022-12-16T21:28:51.781Z,-0.20
2022-12-16T21:31:56.650Z,-0.30
2022-12-16T21:35:01.433Z,-0.30
2022-12-16T21:38:06.208Z,-0.30
2022-12-16T21:41:11.593Z,-0.10
2022-12-16T21:44:16.743Z,-0.20
2022-12-16T21:47:22.330Z,-0.10
2022-12-16T21:50:26.914Z,-0.30
2022-12-16T21:53:31.400Z,-0.40
2022-12-16T21:56:36.540Z,-0.40
2022-12-16T21:59:40.865Z,-0.30
2022-12-16T22:02:45.284Z,-0.40
2022-12-16T22:05:49.676Z,-0.30
2022-12-16T22:08:56.088Z,-0.30
2022-12-16T22:12:00.990Z,-0.30
2022-12-16T22:15:05.552Z,-0.20
2022-12-16T22:18:10.036Z,-0.20
2022-12-16T22:21:17.831Z,-0.20
2022-12-16T22:24:22.478Z,-0.10
2022-12-16T22:27:26.946Z,-0.20
2022-12-16T22:30:31.344Z,-0.30
2022-12-16T22:33:35.810Z,-0.30
2022-12-16T22:36:40.163Z,-0.30
2022-12-16T22:39:45.228Z,-0.40
2022-12-16T22:42:50.110Z,-0.30
2022-12-16T22:45:54.484Z,-0.50
2022-12-16T22:49:00.977Z,-0.50
2022-12-16T22:52:05.875Z,-0.60
2022-12-16T22:55:10.378Z,-0.60
2022-12-16T22:58:14.783Z,-0.60
2022-12-16T23:01:19.242Z,-0.60
2022-12-16T23:04:23.746Z,-0.50
2022-12-16T23:07:28.598Z,-0.50
2022-12-16T23:10:33.087Z,-0.60
2022-12-16T23:13:37.884Z,-0.60
2022-12-16T23:16:42.648Z,-0.60
2022-12-16T23:19:47.038Z,-0.70
2022-12-16T23:22:51.841Z,-0.70
2022-12-16T23:25:57.020Z,-0.80
2022-12-16T23:29:01.695Z,-0.80
2022-12-16T23:32:06.093Z,-0.70
2022-12-16T23:35:30.481Z,-0.70
2022-12-16T23:38:35.258Z,-0.80
2022-12-16T23:41:39.586Z,-0.70
2022-12-16T23:44:44.672Z,-0.70
2022-12-16T23:47:49.119Z,-0.80
2022-12-16T23:50:53.434Z,-0.80
2022-12-16T23:54:01.184Z,-0.90
2022-12-16T23:57:05.789Z,-0.90
